Time;durP1;ratioP1;P1;durP2;ratioP2;P2;SDS_P1;SDS_P2;PMS_P1;PMS_P2;Temp;Humidity;BMP_temperature;BMP_pressure;BME280_temperature;BME280_humidity;BME280_pressure;Samples;Min_cycle;Max_cycle;Signal;HPM_P1;HPM_P2
2022/03/16 00:01:07;;;;;;;16.42;10.35;;;5.90;99.90;;;;;;4971178;28;20130;-87
2022/03/16 00:03:32;;;;;;;17.00;9.80;;;5.90;99.90;;;;;;4971833;28;20524;-87
2022/03/16 00:05:58;;;;;;;16.05;9.50;;;5.80;99.90;;;;;;4970960;28;20039;-87
2022/03/16 00:08:27;;;;;;;13.65;8.82;;;5.80;99.90;;;;;;4961285;28;20122;-85
2022/03/16 00:10:53;;;;;;;16.92;9.13;;;5.80;99.90;;;;;;4970711;28;20061;-85
2022/03/16 00:13:19;;;;;;;17.10;10.45;;;5.80;99.90;;;;;;4971771;28;20066;-87
2022/03/16 00:15:44;;;;;;;16.58;9.80;;;5.70;99.90;;;;;;4971862;28;20069;-88
2022/03/16 00:18:12;;;;;;;18.35;9.10;;;5.70;99.90;;;;;;4970164;28;20076;-85
2022/03/16 00:20:37;;;;;;;15.98;9.88;;;5.70;99.90;;;;;;4970153;28;20050;-85
2022/03/16 00:23:04;;;;;;;15.13;8.85;;;5.60;99.90;;;;;;4971277;28;20069;-87
2022/03/16 00:25:30;;;;;;;13.32;9.77;;;5.50;99.90;;;;;;4971946;28;20538;-87
2022/03/16 00:27:55;;;;;;;13.10;9.45;;;5.40;99.90;;;;;;4970028;28;20121;-87
2022/03/16 00:30:21;;;;;;;13.80;8.50;;;5.30;99.90;;;;;;4969793;28;20046;-88
2022/03/16 00:32:47;;;;;;;16.23;10.88;;;5.30;99.90;;;;;;4973503;28;20435;-86
2022/03/16 00:35:12;;;;;;;16.80;9.73;;;5.30;99.90;;;;;;4970222;28;20039;-88
2022/03/16 00:37:38;;;;;;;21.35;11.43;;;5.30;99.90;;;;;;4971094;28;20490;-86
2022/03/16 00:40:04;;;;;;;17.10;10.68;;;5.30;99.90;;;;;;4969873;28;20490;-88
2022/03/16 00:42:30;;;;;;;19.63;11.23;;;5.30;99.90;;;;;;4970834;28;20066;-86
2022/03/16 00:44:56;;;;;;;16.48;9.48;;;5.40;99.90;;;;;;4968583;28;20062;-89
2022/03/16 00:47:22;;;;;;;20.98;11.50;;;5.40;99.90;;;;;;4970879;28;20058;-87
2022/03/16 00:49:47;;;;;;;15.88;9.60;;;5.30;99.90;;;;;;4971261;28;20069;-88
2022/03/16 00:52:13;;;;;;;18.90;11.07;;;5.30;99.90;;;;;;4970504;28;20092;-89
2022/03/16 00:54:39;;;;;;;17.95;11.85;;;5.30;99.90;;;;;;4971205;28;20031;-88
2022/03/16 00:57:04;;;;;;;15.38;11.27;;;5.20;99.90;;;;;;4969474;28;20482;-88
2022/03/16 00:59:30;;;;;;;15.98;9.02;;;5.20;99.90;;;;;;4986058;28;20340;-88
2022/03/16 01:01:57;;;;;;;14.27;9.40;;;5.20;99.90;;;;;;4969919;28;20486;-87
2022/03/16 01:04:22;;;;;;;17.73;11.65;;;5.20;99.90;;;;;;4970360;28;20047;-87
2022/03/16 01:06:49;;;;;;;15.30;9.45;;;5.20;99.90;;;;;;4970797;28;20116;-86
2022/03/16 01:09:15;;;;;;;15.10;9.55;;;5.10;99.90;;;;;;4969207;28;20030;-88
2022/03/16 01:11:40;;;;;;;14.43;9.50;;;5.00;99.90;;;;;;4970636;28;20365;-87
2022/03/16 01:14:06;;;;;;;14.10;9.00;;;5.00;99.90;;;;;;4967038;28;20035;-87
2022/03/16 01:16:35;;;;;;;14.00;10.95;;;5.00;99.90;;;;;;4969610;28;20034;-88
2022/03/16 01:19:01;;;;;;;15.40;10.10;;;4.90;99.90;;;;;;4969268;28;20097;-89
2022/03/16 01:21:26;;;;;;;18.35;10.70;;;4.90;99.90;;;;;;4970656;28;20062;-86
2022/03/16 01:23:52;;;;;;;18.05;10.43;;;4.80;99.90;;;;;;4968935;28;20085;-87
2022/03/16 01:26:18;;;;;;;17.08;10.70;;;4.90;99.90;;;;;;4970577;28;20035;-87
2022/03/16 01:28:43;;;;;;;15.30;10.35;;;4.70;99.90;;;;;;4970695;28;20041;-87
2022/03/16 01:31:09;;;;;;;20.42;10.27;;;4.80;99.90;;;;;;4964203;28;20066;-87
2022/03/16 01:33:35;;;;;;;19.60;10.35;;;4.70;99.90;;;;;;4970022;28;20364;-87
2022/03/16 01:36:00;;;;;;;20.45;9.90;;;4.80;99.90;;;;;;4969262;28;20034;-88
2022/03/16 01:38:26;;;;;;;16.50;11.32;;;4.90;99.90;;;;;;4970341;28;20129;-86
2022/03/16 01:40:51;;;;;;;22.85;11.80;;;4.90;99.90;;;;;;4969462;28;20509;-88
2022/03/16 01:43:17;;;;;;;12.90;8.70;;;4.80;99.90;;;;;;4968617;28;20043;-86
2022/03/16 01:45:48;;;;;;;15.02;8.88;;;4.70;99.90;;;;;;4961649;28;20541;-87
2022/03/16 01:48:13;;;;;;;15.55;9.60;;;4.80;99.90;;;;;;4968727;28;20035;-86
2022/03/16 01:50:39;;;;;;;14.82;9.43;;;4.80;99.90;;;;;;4970227;28;20107;-86
2022/03/16 01:53:05;;;;;;;16.50;11.20;;;4.60;99.90;;;;;;4968554;28;20043;-88
2022/03/16 01:55:30;;;;;;;16.58;9.73;;;4.70;99.90;;;;;;4969188;28;20031;-88
2022/03/16 01:57:57;;;;;;;22.35;11.55;;;4.60;99.90;;;;;;4968072;28;20039;-87
2022/03/16 02:00:23;;;;;;;21.08;12.40;;;4.60;99.90;;;;;;4969121;28;20035;-86
2022/03/16 02:02:48;;;;;;;24.65;12.07;;;4.70;99.90;;;;;;4967903;28;20062;-86
2022/03/16 02:05:14;;;;;;;22.05;10.73;;;4.70;99.90;;;;;;4968516;28;20089;-89
2022/03/16 02:07:42;;;;;;;14.98;9.90;;;4.70;99.90;;;;;;4984230;28;20390;-86
2022/03/16 02:10:09;;;;;;;18.42;10.27;;;4.60;99.90;;;;;;4968967;28;20031;-87
2022/03/16 02:12:51;;;;;;;15.00;10.63;;;4.50;99.90;;;;;;4965851;28;20122;-86
2022/03/16 02:15:21;;;;;;;14.85;9.85;;;4.60;99.90;;;;;;4969179;28;20130;-88
2022/03/16 02:17:50;;;;;;;18.25;10.45;;;4.50;99.90;;;;;;4969270;28;20062;-87
2022/03/16 02:20:17;;;;;;;20.83;12.05;;;4.50;99.90;;;;;;4969439;28;20026;-88
2022/03/16 02:22:59;;;;;;;22.45;12.48;;;4.60;99.90;;;;;;4968750;28;20050;-89
2022/03/16 02:25:26;;;;;;;21.08;12.18;;;4.60;99.90;;;;;;4969744;28;20026;-89
2022/03/16 02:27:52;;;;;;;22.58;12.35;;;4.50;99.90;;;;;;4970406;28;20046;-88
2022/03/16 02:30:20;;;;;;;23.65;14.10;;;4.50;99.90;;;;;;4973492;28;20497;-87
2022/03/16 02:32:46;;;;;;;22.08;13.45;;;4.50;99.90;;;;;;4987803;28;20035;-87
2022/03/16 02:35:12;;;;;;;19.80;12.10;;;4.60;99.90;;;;;;4970590;28;20041;-87
2022/03/16 02:37:39;;;;;;;31.42;13.93;;;4.50;99.90;;;;;;4973756;28;20023;-87
2022/03/16 02:40:07;;;;;;;23.88;12.30;;;4.60;99.90;;;;;;4970635;28;20102;-87
2022/03/16 02:42:33;;;;;;;23.23;13.57;;;4.50;99.90;;;;;;4972423;28;20547;-88
2022/03/16 02:44:59;;;;;;;17.83;11.85;;;4.50;99.90;;;;;;4972749;28;20094;-87
2022/03/16 02:47:25;;;;;;;24.27;13.93;;;4.40;99.90;;;;;;4971804;28;20038;-87
2022/03/16 02:49:51;;;;;;;26.85;13.55;;;4.40;99.90;;;;;;4973144;28;20050;-86
2022/03/16 02:52:17;;;;;;;22.85;14.30;;;4.30;99.90;;;;;;4973213;28;20038;-87
2022/03/16 02:54:43;;;;;;;22.55;12.82;;;4.20;99.90;;;;;;4972901;28;20086;-87
2022/03/16 02:57:09;;;;;;;23.10;12.30;;;4.10;99.90;;;;;;4973359;28;20031;-88
2022/03/16 02:59:36;;;;;;;21.15;11.80;;;4.10;99.90;;;;;;4971593;28;20078;-89
2022/03/16 03:02:02;;;;;;;21.58;12.77;;;4.00;99.90;;;;;;4982193;28;20272;-87
2022/03/16 03:04:28;;;;;;;23.83;13.07;;;4.00;99.90;;;;;;4953545;28;20078;-89
2022/03/16 03:06:53;;;;;;;23.30;13.02;;;4.00;99.90;;;;;;4972490;28;20078;-87
2022/03/16 03:09:19;;;;;;;19.90;12.25;;;4.00;99.90;;;;;;4971492;28;20163;-89
2022/03/16 03:11:44;;;;;;;18.52;11.32;;;4.20;99.90;;;;;;4969972;28;20023;-87
2022/03/16 03:14:10;;;;;;;17.75;10.48;;;4.20;99.90;;;;;;4972774;28;20599;-88
2022/03/16 03:16:36;;;;;;;16.52;10.30;;;4.20;99.90;;;;;;4972701;28;20038;-87
2022/03/16 03:19:01;;;;;;;15.73;9.55;;;4.10;99.90;;;;;;4972765;28;20733;-89
2022/03/16 03:21:27;;;;;;;16.65;11.13;;;4.00;99.90;;;;;;4968941;28;20038;-87
2022/03/16 03:23:53;;;;;;;31.17;12.88;;;4.00;99.90;;;;;;4969569;28;20038;-89
2022/03/16 03:26:18;;;;;;;27.23;11.50;;;4.00;99.90;;;;;;4971530;28;20109;-87
2022/03/16 03:28:44;;;;;;;19.63;11.88;;;4.00;99.90;;;;;;4970865;28;20125;-88
2022/03/16 03:31:10;;;;;;;103.00;17.63;;;4.10;99.90;;;;;;4971965;28;20130;-87
2022/03/16 03:33:35;;;;;;;137.00;19.40;;;4.10;99.90;;;;;;4971974;28;20038;-88
2022/03/16 03:36:01;;;;;;;36.80;15.32;;;4.10;99.90;;;;;;4970424;28;20038;-87
2022/03/16 03:38:26;;;;;;;22.35;13.02;;;4.10;99.90;;;;;;4971910;28;20029;-87
2022/03/16 03:40:52;;;;;;;22.27;11.82;;;4.10;99.90;;;;;;4971505;28;20046;-88
2022/03/16 03:43:18;;;;;;;23.00;13.40;;;4.00;99.90;;;;;;4968167;28;20593;-89
2022/03/16 03:45:43;;;;;;;31.15;14.40;;;4.10;99.90;;;;;;4972394;28;20038;-88
2022/03/16 03:48:09;;;;;;;23.65;14.32;;;4.10;99.90;;;;;;4970001;28;20557;-88
2022/03/16 03:50:35;;;;;;;28.02;16.05;;;4.20;99.90;;;;;;4971135;28;20039;-86
2022/03/16 03:53:00;;;;;;;31.10;16.00;;;4.40;99.90;;;;;;4967771;28;20122;-87
2022/03/16 03:55:26;;;;;;;29.85;15.50;;;4.50;99.90;;;;;;4971926;28;20037;-87
2022/03/16 03:57:52;;;;;;;28.63;14.93;;;4.50;99.90;;;;;;4970344;28;20031;-87
2022/03/16 04:00:17;;;;;;;27.75;16.20;;;4.60;99.90;;;;;;4969835;28;20038;-89
2022/03/16 04:02:47;;;;;;;32.03;16.13;;;4.60;99.90;;;;;;4970279;28;20125;-87
2022/03/16 04:05:13;;;;;;;22.05;13.65;;;4.60;99.90;;;;;;4971671;28;20050;-88
2022/03/16 04:07:38;;;;;;;24.30;15.60;;;4.70;99.90;;;;;;4970550;28;20039;-88
2022/03/16 04:10:05;;;;;;;40.63;19.05;;;4.90;99.90;;;;;;4971173;28;20375;-87
2022/03/16 04:12:30;;;;;;;26.77;16.27;;;4.80;99.90;;;;;;4970469;28;20038;-87
2022/03/16 04:14:56;;;;;;;28.08;15.48;;;4.70;99.90;;;;;;4963099;28;20035;-87
2022/03/16 04:17:22;;;;;;;35.95;16.90;;;4.70;99.90;;;;;;4970513;28;20039;-87
2022/03/16 04:19:47;;;;;;;30.23;15.85;;;4.60;99.90;;;;;;4971745;28;20106;-89
2022/03/16 04:22:13;;;;;;;26.52;15.43;;;4.60;99.90;;;;;;4970566;28;20043;-89
2022/03/16 04:24:38;;;;;;;28.50;16.35;;;4.70;99.90;;;;;;4967212;28;20058;-89
2022/03/16 04:27:04;;;;;;;29.27;17.25;;;4.80;99.90;;;;;;4970835;28;20038;-87
2022/03/16 04:29:30;;;;;;;30.17;15.23;;;5.00;99.90;;;;;;4971231;28;20039;-87
2022/03/16 04:31:57;;;;;;;29.75;16.42;;;5.10;99.90;;;;;;4970651;28;20125;-87
2022/03/16 04:34:22;;;;;;;32.95;17.60;;;5.20;99.90;;;;;;4971328;28;20062;-88
2022/03/16 04:36:48;;;;;;;36.03;18.17;;;5.10;99.90;;;;;;4969856;28;20058;-87
2022/03/16 04:39:14;;;;;;;34.22;18.33;;;5.10;99.90;;;;;;4959533;28;20031;-87
2022/03/16 04:41:39;;;;;;;33.08;18.25;;;5.10;99.90;;;;;;4969715;28;20073;-88
2022/03/16 04:44:05;;;;;;;36.13;18.50;;;5.10;99.90;;;;;;4971506;28;20773;-88
2022/03/16 04:46:30;;;;;;;33.33;17.15;;;5.10;99.90;;;;;;4970874;28;20035;-86
2022/03/16 04:48:56;;;;;;;31.63;16.85;;;5.20;99.90;;;;;;4968154;28;20038;-86
2022/03/16 04:51:22;;;;;;;32.28;18.77;;;5.30;99.90;;;;;;4968750;28;20070;-87
2022/03/16 04:53:47;;;;;;;26.05;14.95;;;5.40;99.90;;;;;;4970748;28;20070;-84
2022/03/16 04:56:14;;;;;;;32.95;19.85;;;5.50;99.90;;;;;;4970627;28;20558;-87
2022/03/16 04:58:39;;;;;;;33.97;20.92;;;5.60;99.90;;;;;;4970875;28;20483;-87
2022/03/16 05:01:05;;;;;;;36.28;20.65;;;5.50;99.90;;;;;;4976739;28;20038;-87
2022/03/16 05:03:31;;;;;;;39.75;22.23;;;5.40;99.90;;;;;;4969639;28;20497;-85
2022/03/16 05:05:57;;;;;;;28.65;18.20;;;5.60;99.90;;;;;;4970714;28;20027;-85
2022/03/16 05:08:23;;;;;;;28.58;16.60;;;5.60;99.90;;;;;;4970658;28;20113;-88
2022/03/16 05:10:48;;;;;;;29.40;17.10;;;5.70;99.90;;;;;;4970586;28;20466;-87
2022/03/16 05:13:14;;;;;;;23.65;14.63;;;5.70;99.90;;;;;;4969683;28;20470;-87
2022/03/16 05:15:40;;;;;;;29.88;15.82;;;5.60;99.90;;;;;;4967991;28;20035;-88
2022/03/16 05:18:05;;;;;;;26.42;14.75;;;5.40;99.90;;;;;;4970324;28;20129;-87
2022/03/16 05:20:31;;;;;;;28.90;14.93;;;5.40;99.90;;;;;;4966194;28;20034;-87
2022/03/16 05:22:57;;;;;;;24.55;15.32;;;5.10;99.90;;;;;;4969206;28;20034;-87
2022/03/16 05:25:25;;;;;;;30.38;15.30;;;4.90;99.90;;;;;;4969920;28;20121;-87
2022/03/16 05:27:51;;;;;;;28.50;15.57;;;4.90;99.90;;;;;;4967777;28;20542;-87
2022/03/16 05:30:17;;;;;;;24.52;14.93;;;5.10;99.90;;;;;;4969787;28;20042;-86
2022/03/16 05:32:43;;;;;;;30.92;15.63;;;5.10;99.90;;;;;;4970223;28;20026;-87
2022/03/16 05:35:10;;;;;;;28.40;16.02;;;5.00;99.90;;;;;;4969102;28;20038;-87
2022/03/16 05:37:36;;;;;;;25.42;15.70;;;4.90;99.90;;;;;;4968327;28;20023;-88
2022/03/16 05:40:03;;;;;;;25.98;14.55;;;4.90;99.90;;;;;;4969968;28;20038;-87
2022/03/16 05:42:29;;;;;;;34.10;16.30;;;4.90;99.90;;;;;;4967663;28;20031;-88
2022/03/16 05:44:54;;;;;;;35.00;17.35;;;4.70;99.90;;;;;;4969669;28;20041;-88
2022/03/16 05:47:24;;;;;;;31.73;17.67;;;4.70;99.90;;;;;;4969052;28;20039;-87
2022/03/16 05:49:54;;;;;;;29.35;16.52;;;4.70;99.90;;;;;;4966594;28;20129;-88
2022/03/16 05:52:21;;;;;;;32.00;17.37;;;4.70;99.90;;;;;;4985548;28;20043;-88
2022/03/16 05:54:52;;;;;;;24.45;14.68;;;4.90;99.90;;;;;;4969438;28;20386;-86
2022/03/16 05:57:18;;;;;;;34.00;15.60;;;5.00;99.90;;;;;;4967787;28;20459;-87
2022/03/16 05:59:45;;;;;;;32.38;15.80;;;5.10;99.90;;;;;;4966212;28;20047;-88
2022/03/16 06:02:11;;;;;;;28.05;14.52;;;5.10;99.90;;;;;;4966886;28;20656;-86
2022/03/16 06:04:38;;;;;;;31.00;16.38;;;4.90;99.90;;;;;;4969563;28;20047;-88
2022/03/16 06:07:04;;;;;;;28.52;17.05;;;4.80;99.90;;;;;;4970078;28;20031;-87
2022/03/16 06:09:30;;;;;;;25.58;15.07;;;4.70;99.90;;;;;;4969456;28;20027;-87
2022/03/16 06:11:56;;;;;;;31.00;16.35;;;4.90;99.90;;;;;;4964503;28;20090;-87
2022/03/16 06:14:22;;;;;;;26.45;15.75;;;5.00;99.90;;;;;;4984939;28;20039;-88
2022/03/16 06:16:48;;;;;;;29.80;16.75;;;5.00;99.90;;;;;;4968141;28;20033;-88
2022/03/16 06:19:13;;;;;;;31.27;16.05;;;5.00;99.90;;;;;;4969742;28;20102;-88
2022/03/16 06:21:39;;;;;;;34.28;17.95;;;5.00;99.90;;;;;;4967943;28;20027;-88
2022/03/16 06:24:05;;;;;;;35.30;17.80;;;5.10;99.90;;;;;;4966084;28;20089;-87
2022/03/16 06:26:31;;;;;;;33.15;17.38;;;5.00;99.90;;;;;;4968804;28;20608;-87
2022/03/16 06:28:57;;;;;;;31.77;17.15;;;5.10;99.90;;;;;;4966685;28;20065;-87
2022/03/16 06:31:23;;;;;;;29.83;15.90;;;5.40;99.90;;;;;;4968902;28;20371;-88
2022/03/16 06:33:48;;;;;;;29.25;15.82;;;5.60;99.90;;;;;;4970120;28;20363;-86
2022/03/16 06:36:14;;;;;;;32.17;16.42;;;5.70;99.90;;;;;;4969389;28;20090;-87
2022/03/16 06:38:39;;;;;;;31.73;17.40;;;5.80;99.90;;;;;;4968659;28;20027;-87
2022/03/16 06:41:06;;;;;;;26.05;15.25;;;5.90;99.90;;;;;;4969693;28;20487;-88
2022/03/16 06:43:31;;;;;;;30.80;17.33;;;6.10;99.90;;;;;;4969716;28;20062;-86
2022/03/16 06:45:57;;;;;;;28.52;15.85;;;6.10;99.90;;;;;;4969240;28;20066;-87
2022/03/16 06:48:23;;;;;;;29.27;17.65;;;5.90;99.90;;;;;;4969221;28;20102;-89
2022/03/16 06:50:52;;;;;;;30.48;17.63;;;5.80;99.90;;;;;;4960873;28;20087;-86
2022/03/16 06:53:18;;;;;;;42.83;18.08;;;6.00;99.90;;;;;;4965753;28;20039;-87
2022/03/16 06:55:44;;;;;;;38.25;18.02;;;6.10;99.90;;;;;;4968090;28;20026;-87
2022/03/16 06:58:09;;;;;;;29.63;17.63;;;6.30;99.90;;;;;;4970252;28;20482;-88
2022/03/16 07:00:35;;;;;;;34.05;17.70;;;6.50;99.90;;;;;;4968298;28;20099;-87
2022/03/16 07:03:03;;;;;;;31.50;18.05;;;6.40;99.90;;;;;;4962764;28;20067;-87
2022/03/16 07:05:28;;;;;;;28.40;16.90;;;6.50;99.90;;;;;;4969567;28;20382;-88
2022/03/16 07:07:58;;;;;;;34.63;17.80;;;6.50;99.90;;;;;;4967412;28;20035;-89
2022/03/16 07:10:24;;;;;;;32.72;18.23;;;6.40;99.90;;;;;;4969676;28;20509;-85
2022/03/16 07:12:50;;;;;;;34.78;19.25;;;6.40;99.90;;;;;;4967428;28;20053;-88
2022/03/16 07:15:16;;;;;;;33.63;17.92;;;6.60;99.90;;;;;;4986357;28;20035;-88
2022/03/16 07:17:41;;;;;;;31.10;18.10;;;6.80;99.90;;;;;;4973092;28;20031;-88
2022/03/16 07:20:07;;;;;;;39.70;19.45;;;6.90;99.90;;;;;;4973851;28;20027;-88
2022/03/16 07:22:35;;;;;;;47.30;17.95;;;7.00;99.90;;;;;;4973530;28;20031;-88
2022/03/16 07:25:03;;;;;;;42.42;20.70;;;7.00;99.90;;;;;;4966039;28;20030;-86
2022/03/16 07:27:30;;;;;;;36.55;18.98;;;7.00;99.90;;;;;;4972832;28;20394;-87
2022/03/16 07:29:55;;;;;;;40.10;22.27;;;7.10;99.90;;;;;;4973024;28;20039;-87
2022/03/16 07:32:22;;;;;;;41.13;24.13;;;7.00;99.90;;;;;;4972248;28;20123;-89
2022/03/16 07:34:48;;;;;;;34.42;20.30;;;6.80;99.90;;;;;;4972402;28;20023;-87
2022/03/16 07:37:14;;;;;;;42.53;22.38;;;6.80;99.90;;;;;;4972164;28;20524;-87
2022/03/16 07:39:40;;;;;;;39.30;20.20;;;7.10;99.90;;;;;;4972817;28;20030;-88
2022/03/16 07:42:06;;;;;;;36.53;20.27;;;7.20;99.90;;;;;;4972436;28;20035;-87
2022/03/16 07:44:32;;;;;;;33.50;18.63;;;7.20;99.90;;;;;;4972516;28;20041;-87
2022/03/16 07:46:58;;;;;;;36.00;19.58;;;7.30;99.90;;;;;;4964442;28;20062;-86
2022/03/16 07:49:24;;;;;;;37.10;19.25;;;7.40;99.90;;;;;;4970137;28;20511;-86
2022/03/16 07:51:50;;;;;;;42.70;21.92;;;7.50;99.90;;;;;;4971398;28;20026;-86
2022/03/16 07:54:15;;;;;;;42.38;20.85;;;7.50;99.90;;;;;;4971384;28;20039;-86
2022/03/16 07:56:41;;;;;;;41.90;20.58;;;7.20;99.90;;;;;;4963974;28;20035;-86
2022/03/16 07:59:07;;;;;;;39.75;21.42;;;7.40;99.90;;;;;;4962292;28;20101;-87
2022/03/16 08:01:32;;;;;;;42.45;20.92;;;7.70;99.90;;;;;;4971764;28;20107;-86
2022/03/16 08:03:58;;;;;;;43.55;23.75;;;7.90;99.90;;;;;;4971884;28;20058;-87
2022/03/16 08:06:24;;;;;;;44.47;23.45;;;8.00;99.90;;;;;;4970531;28;20030;-86
2022/03/16 08:08:49;;;;;;;50.85;25.25;;;8.10;99.90;;;;;;4969489;28;20089;-86
2022/03/16 08:11:15;;;;;;;49.90;24.17;;;8.20;99.90;;;;;;4960984;28;20034;-87
2022/03/16 08:13:41;;;;;;;48.75;23.23;;;8.00;99.90;;;;;;4953564;28;20092;-85
2022/03/16 08:16:07;;;;;;;68.20;27.13;;;8.00;99.90;;;;;;4972192;28;20042;-87
2022/03/16 08:18:34;;;;;;;66.40;28.50;;;7.70;99.90;;;;;;4966726;28;20063;-86
2022/03/16 08:20:59;;;;;;;59.90;24.73;;;7.50;99.90;;;;;;4970704;28;20050;-87
2022/03/16 08:23:25;;;;;;;75.50;27.67;;;7.70;99.90;;;;;;4970751;28;20556;-85
2022/03/16 08:25:51;;;;;;;59.75;26.48;;;7.90;99.90;;;;;;4971379;28;20042;-86
2022/03/16 08:28:16;;;;;;;62.40;26.45;;;7.90;99.90;;;;;;4971777;28;20055;-87
2022/03/16 08:30:42;;;;;;;72.38;28.55;;;8.00;99.90;;;;;;4963294;28;20064;-85
2022/03/16 08:33:08;;;;;;;60.70;28.25;;;8.10;99.90;;;;;;4970014;28;20042;-85
2022/03/16 08:35:34;;;;;;;87.85;31.48;;;8.00;99.90;;;;;;4969209;28;20027;-87
2022/03/16 08:37:59;;;;;;;194.93;30.50;;;8.10;99.90;;;;;;4970376;28;20031;-86
2022/03/16 08:40:25;;;;;;;109.72;33.10;;;7.80;99.90;;;;;;4970657;28;20320;-85
2022/03/16 08:42:52;;;;;;;99.72;32.60;;;7.50;99.90;;;;;;4971387;28;20085;-85
2022/03/16 08:45:19;;;;;;;153.02;37.15;;;7.60;99.90;;;;;;4971655;28;20035;-84
2022/03/16 08:47:45;;;;;;;95.15;32.17;;;7.60;99.90;;;;;;4969966;28;20122;-88
2022/03/16 08:50:10;;;;;;;98.85;33.75;;;7.50;99.90;;;;;;4971195;28;20115;-84
2022/03/16 08:52:36;;;;;;;180.50;38.78;;;7.40;99.90;;;;;;4986615;28;20031;-88
2022/03/16 08:55:02;;;;;;;79.30;34.20;;;7.30;99.90;;;;;;4971137;28;20039;-87
2022/03/16 08:57:28;;;;;;;118.75;32.92;;;7.30;99.90;;;;;;4971523;28;20061;-86
2022/03/16 08:59:55;;;;;;;107.30;33.97;;;7.30;99.90;;;;;;4984995;28;20029;-87
2022/03/16 09:02:21;;;;;;;102.85;35.13;;;7.00;99.90;;;;;;4970473;28;20451;-86
2022/03/16 09:04:47;;;;;;;133.60;34.60;;;7.00;99.90;;;;;;4966643;28;20074;-87
2022/03/16 09:07:12;;;;;;;147.73;37.08;;;7.00;99.90;;;;;;4971479;28;20098;-86
2022/03/16 09:09:39;;;;;;;121.25;34.28;;;7.10;99.90;;;;;;4969884;28;20130;-86
2022/03/16 09:12:05;;;;;;;129.10;33.40;;;7.10;99.90;;;;;;4969139;28;20026;-86
2022/03/16 09:14:31;;;;;;;71.57;31.70;;;7.10;99.90;;;;;;4961814;28;20047;-88
2022/03/16 09:16:57;;;;;;;134.25;35.33;;;7.20;99.90;;;;;;4970805;28;20043;-87
2022/03/16 09:19:22;;;;;;;89.20;30.50;;;7.10;99.90;;;;;;4970711;28;20062;-87
2022/03/16 09:21:49;;;;;;;74.18;31.10;;;7.10;99.90;;;;;;4953193;28;20033;-87
2022/03/16 09:24:18;;;;;;;97.85;33.17;;;7.10;99.90;;;;;;4969627;28;20114;-87
2022/03/16 09:26:45;;;;;;;135.90;32.22;;;7.10;99.90;;;;;;4969568;28;20253;-88
2022/03/16 09:29:11;;;;;;;105.65;30.00;;;7.00;99.90;;;;;;4970932;28;20035;-86
2022/03/16 09:31:43;;;;;;;101.47;33.53;;;7.20;99.90;;;;;;4970223;28;20089;-88
2022/03/16 09:34:09;;;;;;;136.98;33.72;;;7.30;99.90;;;;;;4967618;28;20027;-89
2022/03/16 09:36:37;;;;;;;81.57;33.65;;;7.20;99.90;;;;;;4969066;28;20058;-86
2022/03/16 09:39:03;;;;;;;96.20;31.67;;;7.20;99.90;;;;;;4981314;28;20093;-86
2022/03/16 09:41:28;;;;;;;119.25;32.65;;;7.30;99.90;;;;;;4970645;28;20035;-87
2022/03/16 09:43:55;;;;;;;94.90;30.58;;;7.30;99.90;;;;;;4969752;28;20502;-86
2022/03/16 09:46:31;;;;;;;84.90;30.95;;;7.30;99.90;;;;;;4968556;28;20023;-87
2022/03/16 09:48:57;;;;;;;168.10;35.35;;;7.30;99.90;;;;;;4962035;28;20035;-85
2022/03/16 09:51:23;;;;;;;143.57;33.90;;;7.20;99.90;;;;;;4970450;28;20042;-85
2022/03/16 09:53:49;;;;;;;158.57;36.20;;;7.00;99.90;;;;;;4969294;28;20482;-86
2022/03/16 09:56:15;;;;;;;78.10;34.55;;;6.90;99.90;;;;;;4968457;28;20081;-85
2022/03/16 09:58:43;;;;;;;104.68;35.20;;;7.00;99.90;;;;;;4979644;28;20035;-86
2022/03/16 10:01:09;;;;;;;92.82;30.60;;;7.00;99.90;;;;;;4969104;28;20390;-87
2022/03/16 10:03:35;;;;;;;80.15;30.77;;;7.10;99.90;;;;;;4984996;28;20047;-87
2022/03/16 10:06:04;;;;;;;81.53;31.75;;;7.20;99.90;;;;;;4969754;28;20039;-86
2022/03/16 10:08:32;;;;;;;89.80;32.63;;;7.30;99.90;;;;;;4969512;28;20035;-87
2022/03/16 10:14:07;;;;;;;75.30;31.25;;;7.50;99.90;;;;;;4966013;28;20082;-86
2022/03/16 10:17:43;;;;;;;78.93;30.58;;;7.50;99.90;;;;;;4970431;28;20050;-87
2022/03/16 10:19:24;;;;;;;68.70;31.00;;;7.50;99.90;;;;;;4969194;28;20105;-87
2022/03/16 10:22:00;;;;;;;80.57;32.15;;;7.40;99.90;;;;;;4970348;28;20730;-86
2022/03/16 10:24:30;;;;;;;74.40;31.65;;;7.50;99.90;;;;;;4968788;28;20034;-87
2022/03/16 10:26:59;;;;;;;81.72;34.47;;;7.50;99.90;;;;;;4969621;28;20042;-86
2022/03/16 10:29:31;;;;;;;74.15;30.08;;;7.50;99.90;;;;;;4959263;28;20026;-88
2022/03/16 10:32:04;;;;;;;79.18;31.90;;;7.30;99.90;;;;;;4969777;28;20035;-86
2022/03/16 10:34:31;;;;;;;80.63;31.27;;;7.60;99.90;;;;;;4969789;28;20038;-86
2022/03/16 10:37:04;;;;;;;73.60;30.77;;;7.60;99.90;;;;;;4967912;28;20023;-86
2022/03/16 10:39:34;;;;;;;75.70;32.53;;;7.70;99.90;;;;;;4970403;28;20031;-87
2022/03/16 10:48:12;;;;;;;71.32;32.13;;;7.90;99.90;;;;;;4968027;28;20034;-87
2022/03/16 10:50:39;;;;;;;71.80;32.17;;;8.00;99.90;;;;;;4973691;28;20106;-86
2022/03/16 10:53:05;;;;;;;62.47;27.95;;;8.10;99.90;;;;;;4971032;28;20065;-86
2022/03/16 10:55:31;;;;;;;70.78;29.60;;;8.20;99.90;;;;;;4969252;28;20061;-85
2022/03/16 10:57:58;;;;;;;73.82;33.63;;;8.20;99.90;;;;;;4975961;28;20027;-86
2022/03/16 11:00:27;;;;;;;70.18;31.52;;;8.20;99.90;;;;;;4971380;28;20182;-85
2022/03/16 11:02:55;;;;;;;67.05;29.02;;;8.10;99.90;;;;;;4974605;28;20711;-84
2022/03/16 11:05:21;;;;;;;78.90;30.50;;;7.90;99.90;;;;;;4972631;28;20123;-85
2022/03/16 11:07:51;;;;;;;65.38;30.15;;;8.10;99.90;;;;;;4986554;28;20117;-84
2022/03/16 11:10:19;;;;;;;58.30;26.90;;;8.30;99.90;;;;;;4973163;28;20046;-85
2022/03/16 11:15:30;;;;;;;62.15;26.38;;;8.40;99.90;;;;;;4974233;28;20126;-84
2022/03/16 11:17:55;;;;;;;61.30;26.67;;;8.50;99.90;;;;;;4971085;28;20027;-84
2022/03/16 11:20:22;;;;;;;57.58;25.08;;;8.60;99.90;;;;;;4966152;28;20035;-85
2022/03/16 11:26:11;;;;;;;54.10;25.27;;;8.50;99.90;;;;;;4970856;28;20045;-84
2022/03/16 11:29:00;;;;;;;58.00;26.48;;;8.70;99.90;;;;;;4966473;28;20065;-84
2022/03/16 11:31:31;;;;;;;53.78;23.52;;;8.80;99.90;;;;;;4971273;28;20053;-84
2022/03/16 11:33:59;;;;;;;52.33;23.48;;;8.90;99.90;;;;;;4971894;28;20031;-84
2022/03/16 11:36:43;;;;;;;52.67;25.45;;;9.10;99.90;;;;;;4980994;28;20019;-82
2022/03/16 11:39:20;;;;;;;52.42;25.08;;;9.50;99.90;;;;;;4970225;28;20030;-84
2022/03/16 11:41:53;;;;;;;52.03;24.42;;;9.60;99.90;;;;;;4969642;28;20027;-84
2022/03/16 11:44:25;;;;;;;47.55;22.65;;;9.60;99.90;;;;;;4969678;28;20114;-84
2022/03/16 11:46:51;;;;;;;57.35;26.73;;;9.20;99.90;;;;;;4971056;28;20377;-83
2022/03/16 11:49:30;;;;;;;50.55;25.83;;;9.50;99.90;;;;;;4971311;28;20367;-83
2022/03/16 11:52:00;;;;;;;54.08;25.10;;;9.70;99.90;;;;;;4970404;28;20114;-83
2022/03/16 11:54:45;;;;;;;54.92;24.58;;;9.50;99.90;;;;;;4971232;28;20280;-83
2022/03/16 11:57:12;;;;;;;47.78;22.20;;;9.90;99.90;;;;;;4967161;28;20031;-83
2022/03/16 11:59:45;;;;;;;51.00;23.00;;;10.00;99.90;;;;;;4970130;28;20063;-84
2022/03/16 12:02:18;;;;;;;53.58;24.52;;;10.10;99.90;;;;;;4962786;28;20043;-83
2022/03/16 12:04:48;;;;;;;51.92;23.85;;;10.00;99.90;;;;;;4971894;28;20042;-85
2022/03/16 12:07:19;;;;;;;48.63;24.38;;;9.70;99.90;;;;;;4982785;28;20030;-83
2022/03/16 12:09:51;;;;;;;50.17;23.77;;;9.80;99.90;;;;;;4974124;28;20027;-85
2022/03/16 12:15:12;;;;;;;49.60;22.90;;;9.80;99.90;;;;;;4967378;28;20038;-85
2022/03/16 12:17:58;;;;;;;48.00;22.35;;;9.60;99.90;;;;;;4966614;28;20501;-84
2022/03/16 12:20:28;;;;;;;40.42;21.10;;;9.50;99.90;;;;;;4960358;28;20043;-85
2022/03/16 12:23:10;;;;;;;49.33;22.13;;;9.60;99.90;;;;;;4969984;28;20039;-85
2022/03/16 12:25:40;;;;;;;44.75;20.15;;;9.60;99.90;;;;;;4971570;28;20093;-85
2022/03/16 12:31:01;;;;;;;50.08;21.98;;;9.70;99.90;;;;;;4960230;28;20093;-86
2022/03/16 12:33:53;;;;;;;47.78;23.40;;;9.80;99.90;;;;;;4972450;28;20030;-84
2022/03/16 12:36:36;;;;;;;42.60;21.08;;;10.00;99.90;;;;;;4978104;28;20113;-83
2022/03/16 12:39:08;;;;;;;44.53;20.25;;;10.20;99.90;;;;;;4968341;28;20031;-84
2022/03/16 12:44:21;;;;;;;41.67;20.75;;;10.70;99.90;;;;;;4971699;28;20121;-84
2022/03/16 12:47:15;;;;;;;39.47;19.52;;;10.70;99.80;;;;;;4975169;28;20035;-83
2022/03/16 12:49:43;;;;;;;46.85;22.13;;;10.70;99.90;;;;;;4971938;28;20038;-83
2022/03/16 12:52:09;;;;;;;42.20;20.52;;;10.80;99.90;;;;;;4975285;28;20041;-83
2022/03/16 12:54:36;;;;;;;42.15;19.98;;;11.10;99.50;;;;;;4973204;28;20082;-83
2022/03/16 12:57:08;;;;;;;47.53;20.25;;;11.10;99.70;;;;;;4969446;28;20035;-83
2022/03/16 12:59:52;;;;;;;38.15;18.52;;;10.90;99.90;;;;;;4979104;28;20027;-82